sensor_id;sensor_type;location;lat;lon;timestamp;P1;durP1;ratioP1;P2;durP2;ratioP2
53875;SDS011;39789;53.216;5.624;2022-10-16T00:01:51;4.38;;;1.88;;
53875;SDS011;39789;53.216;5.624;2022-10-16T00:04:16;6.15;;;2.08;;
53875;SDS011;39789;53.216;5.624;2022-10-16T00:06:42;4.40;;;1.90;;
53875;SDS011;39789;53.216;5.624;2022-10-16T00:09:08;5.65;;;2.05;;
53875;SDS011;39789;53.216;5.624;2022-10-16T00:11:34;10.35;;;1.98;;
53875;SDS011;39789;53.216;5.624;2022-10-16T00:14:02;5.15;;;1.80;;
53875;SDS011;39789;53.216;5.624;2022-10-16T00:16:30;5.72;;;1.73;;
53875;SDS011;39789;53.216;5.624;2022-10-16T00:18:56;8.40;;;2.05;;
53875;SDS011;39789;53.216;5.624;2022-10-16T00:21:23;7.82;;;2.05;;
53875;SDS011;39789;53.216;5.624;2022-10-16T00:23:51;8.38;;;1.90;;
53875;SDS011;39789;53.216;5.624;2022-10-16T00:26:21;5.75;;;2.30;;
53875;SDS011;39789;53.216;5.624;2022-10-16T00:28:47;7.88;;;2.15;;
53875;SDS011;39789;53.216;5.624;2022-10-16T00:31:14;6.55;;;2.00;;
53875;SDS011;39789;53.216;5.624;2022-10-16T00:33:40;7.57;;;2.22;;
53875;SDS011;39789;53.216;5.624;2022-10-16T00:36:07;6.53;;;1.92;;
53875;SDS011;39789;53.216;5.624;2022-10-16T00:38:35;4.40;;;1.75;;
53875;SDS011;39789;53.216;5.624;2022-10-16T00:41:00;6.32;;;2.00;;
53875;SDS011;39789;53.216;5.624;2022-10-16T00:43:37;6.03;;;1.80;;
53875;SDS011;39789;53.216;5.624;2022-10-16T00:46:07;4.95;;;1.70;;
53875;SDS011;39789;53.216;5.624;2022-10-16T00:48:57;8.88;;;2.17;;
53875;SDS011;39789;53.216;5.624;2022-10-16T00:51:28;8.60;;;1.90;;
53875;SDS011;39789;53.216;5.624;2022-10-16T00:53:57;8.77;;;2.95;;
53875;SDS011;39789;53.216;5.624;2022-10-16T00:56:24;5.45;;;1.80;;
53875;SDS011;39789;53.216;5.624;2022-10-16T00:58:50;6.10;;;2.28;;
53875;SDS011;39789;53.216;5.624;2022-10-16T01:01:16;4.47;;;1.63;;
53875;SDS011;39789;53.216;5.624;2022-10-16T01:03:42;4.13;;;1.27;;
53875;SDS011;39789;53.216;5.624;2022-10-16T01:06:24;2.97;;;1.58;;
53875;SDS011;39789;53.216;5.624;2022-10-16T01:17:01;4.18;;;1.60;;
53875;SDS011;39789;53.216;5.624;2022-10-16T01:22:15;3.70;;;1.60;;
53875;SDS011;39789;53.216;5.624;2022-10-16T01:24:46;5.88;;;1.85;;
53875;SDS011;39789;53.216;5.624;2022-10-16T01:27:20;2.85;;;1.42;;
53875;SDS011;39789;53.216;5.624;2022-10-16T01:29:56;4.85;;;1.70;;
53875;SDS011;39789;53.216;5.624;2022-10-16T01:32:31;4.22;;;2.25;;
53875;SDS011;39789;53.216;5.624;2022-10-16T01:35:01;9.95;;;1.88;;
53875;SDS011;39789;53.216;5.624;2022-10-16T01:37:40;5.18;;;1.90;;
53875;SDS011;39789;53.216;5.624;2022-10-16T01:40:44;5.60;;;1.65;;
53875;SDS011;39789;53.216;5.624;2022-10-16T01:43:14;2.85;;;1.65;;
53875;SDS011;39789;53.216;5.624;2022-10-16T01:45:44;3.50;;;1.55;;
53875;SDS011;39789;53.216;5.624;2022-10-16T01:48:12;6.25;;;1.88;;
53875;SDS011;39789;53.216;5.624;2022-10-16T01:50:41;5.25;;;2.20;;
53875;SDS011;39789;53.216;5.624;2022-10-16T01:53:10;6.93;;;2.00;;
53875;SDS011;39789;53.216;5.624;2022-10-16T01:55:40;6.78;;;1.58;;
53875;SDS011;39789;53.216;5.624;2022-10-16T01:58:10;7.68;;;1.92;;
53875;SDS011;39789;53.216;5.624;2022-10-16T02:00:39;3.85;;;1.65;;
53875;SDS011;39789;53.216;5.624;2022-10-16T02:03:08;4.85;;;1.90;;
53875;SDS011;39789;53.216;5.624;2022-10-16T02:05:46;4.65;;;1.90;;
53875;SDS011;39789;53.216;5.624;2022-10-16T02:08:15;7.70;;;2.45;;
53875;SDS011;39789;53.216;5.624;2022-10-16T02:10:41;4.43;;;1.95;;
53875;SDS011;39789;53.216;5.624;2022-10-16T02:13:11;7.10;;;2.05;;
53875;SDS011;39789;53.216;5.624;2022-10-16T02:15:41;8.35;;;2.30;;
53875;SDS011;39789;53.216;5.624;2022-10-16T02:18:07;3.75;;;1.88;;
53875;SDS011;39789;53.216;5.624;2022-10-16T02:20:47;3.28;;;1.50;;
53875;SDS011;39789;53.216;5.624;2022-10-16T02:23:19;6.45;;;1.30;;
53875;SDS011;39789;53.216;5.624;2022-10-16T02:26:08;3.55;;;1.70;;
53875;SDS011;39789;53.216;5.624;2022-10-16T02:28:42;4.88;;;1.67;;
53875;SDS011;39789;53.216;5.624;2022-10-16T02:31:12;4.45;;;1.70;;
53875;SDS011;39789;53.216;5.624;2022-10-16T02:33:41;3.97;;;1.90;;
53875;SDS011;39789;53.216;5.624;2022-10-16T02:36:09;4.70;;;1.88;;
53875;SDS011;39789;53.216;5.624;2022-10-16T02:38:35;4.97;;;2.40;;
53875;SDS011;39789;53.216;5.624;2022-10-16T02:41:01;7.25;;;2.38;;
53875;SDS011;39789;53.216;5.624;2022-10-16T02:43:28;5.43;;;2.03;;
53875;SDS011;39789;53.216;5.624;2022-10-16T02:45:53;10.45;;;2.67;;
53875;SDS011;39789;53.216;5.624;2022-10-16T02:48:19;5.03;;;2.28;;
53875;SDS011;39789;53.216;5.624;2022-10-16T02:50:45;4.20;;;2.53;;
53875;SDS011;39789;53.216;5.624;2022-10-16T02:53:10;5.28;;;2.50;;
53875;SDS011;39789;53.216;5.624;2022-10-16T02:55:36;2.13;;;1.92;;
53875;SDS011;39789;53.216;5.624;2022-10-16T02:58:02;5.30;;;2.78;;
53875;SDS011;39789;53.216;5.624;2022-10-16T03:00:27;4.93;;;2.65;;
53875;SDS011;39789;53.216;5.624;2022-10-16T03:02:53;4.63;;;3.25;;
53875;SDS011;39789;53.216;5.624;2022-10-16T03:05:19;7.00;;;2.50;;
53875;SDS011;39789;53.216;5.624;2022-10-16T03:07:44;9.27;;;3.10;;
53875;SDS011;39789;53.216;5.624;2022-10-16T03:10:10;6.30;;;2.80;;
53875;SDS011;39789;53.216;5.624;2022-10-16T03:12:35;4.50;;;2.70;;
53875;SDS011;39789;53.216;5.624;2022-10-16T03:15:01;5.78;;;2.75;;
53875;SDS011;39789;53.216;5.624;2022-10-16T03:17:27;4.75;;;2.65;;
53875;SDS011;39789;53.216;5.624;2022-10-16T03:19:53;7.53;;;3.25;;
53875;SDS011;39789;53.216;5.624;2022-10-16T03:22:18;7.90;;;2.70;;
53875;SDS011;39789;53.216;5.624;2022-10-16T03:24:44;8.43;;;2.83;;
53875;SDS011;39789;53.216;5.624;2022-10-16T03:27:09;4.07;;;2.13;;
53875;SDS011;39789;53.216;5.624;2022-10-16T03:29:35;5.03;;;2.40;;
53875;SDS011;39789;53.216;5.624;2022-10-16T03:32:00;4.85;;;2.10;;
53875;SDS011;39789;53.216;5.624;2022-10-16T03:34:27;7.93;;;2.40;;
53875;SDS011;39789;53.216;5.624;2022-10-16T03:36:53;5.55;;;2.20;;
53875;SDS011;39789;53.216;5.624;2022-10-16T03:39:18;4.13;;;2.00;;
53875;SDS011;39789;53.216;5.624;2022-10-16T03:41:44;3.55;;;1.98;;
53875;SDS011;39789;53.216;5.624;2022-10-16T03:44:11;8.95;;;2.13;;
53875;SDS011;39789;53.216;5.624;2022-10-16T03:46:38;2.35;;;1.80;;
53875;SDS011;39789;53.216;5.624;2022-10-16T03:49:04;5.07;;;2.15;;
53875;SDS011;39789;53.216;5.624;2022-10-16T03:51:30;6.43;;;2.33;;
53875;SDS011;39789;53.216;5.624;2022-10-16T03:53:55;3.17;;;1.92;;
53875;SDS011;39789;53.216;5.624;2022-10-16T03:56:21;2.63;;;1.83;;
53875;SDS011;39789;53.216;5.624;2022-10-16T03:58:47;6.00;;;1.60;;
53875;SDS011;39789;53.216;5.624;2022-10-16T04:01:12;2.65;;;1.88;;
53875;SDS011;39789;53.216;5.624;2022-10-16T04:03:38;5.00;;;2.30;;
53875;SDS011;39789;53.216;5.624;2022-10-16T04:06:03;3.08;;;1.77;;
53875;SDS011;39789;53.216;5.624;2022-10-16T04:08:29;3.85;;;2.10;;
53875;SDS011;39789;53.216;5.624;2022-10-16T04:10:55;4.82;;;1.83;;
53875;SDS011;39789;53.216;5.624;2022-10-16T04:13:20;5.32;;;2.20;;
53875;SDS011;39789;53.216;5.624;2022-10-16T04:15:47;5.78;;;2.10;;
53875;SDS011;39789;53.216;5.624;2022-10-16T04:18:13;5.80;;;2.13;;
53875;SDS011;39789;53.216;5.624;2022-10-16T04:20:38;3.85;;;1.98;;
53875;SDS011;39789;53.216;5.624;2022-10-16T04:23:04;6.40;;;2.60;;
53875;SDS011;39789;53.216;5.624;2022-10-16T04:25:30;6.45;;;2.53;;
53875;SDS011;39789;53.216;5.624;2022-10-16T04:27:56;4.63;;;2.22;;
53875;SDS011;39789;53.216;5.624;2022-10-16T04:30:22;5.85;;;2.30;;
53875;SDS011;39789;53.216;5.624;2022-10-16T04:32:48;4.85;;;1.90;;
53875;SDS011;39789;53.216;5.624;2022-10-16T04:35:15;5.18;;;2.13;;
53875;SDS011;39789;53.216;5.624;2022-10-16T04:37:40;4.15;;;2.00;;
53875;SDS011;39789;53.216;5.624;2022-10-16T04:43:47;5.22;;;1.80;;
53875;SDS011;39789;53.216;5.624;2022-10-16T04:46:13;7.22;;;1.98;;
53875;SDS011;39789;53.216;5.624;2022-10-16T04:48:39;7.20;;;2.17;;
53875;SDS011;39789;53.216;5.624;2022-10-16T04:51:04;5.32;;;1.95;;
53875;SDS011;39789;53.216;5.624;2022-10-16T04:53:30;5.18;;;2.20;;
53875;SDS011;39789;53.216;5.624;2022-10-16T04:55:55;6.47;;;2.03;;
53875;SDS011;39789;53.216;5.624;2022-10-16T04:58:22;5.40;;;2.03;;
53875;SDS011;39789;53.216;5.624;2022-10-16T05:00:47;4.32;;;1.92;;
53875;SDS011;39789;53.216;5.624;2022-10-16T05:03:13;2.90;;;1.88;;
53875;SDS011;39789;53.216;5.624;2022-10-16T05:05:45;5.72;;;1.77;;
53875;SDS011;39789;53.216;5.624;2022-10-16T05:08:12;5.15;;;2.03;;
53875;SDS011;39789;53.216;5.624;2022-10-16T05:10:40;4.85;;;1.65;;
53875;SDS011;39789;53.216;5.624;2022-10-16T05:13:07;3.58;;;1.75;;
53875;SDS011;39789;53.216;5.624;2022-10-16T05:15:32;3.33;;;1.50;;
53875;SDS011;39789;53.216;5.624;2022-10-16T05:17:58;3.15;;;1.55;;
53875;SDS011;39789;53.216;5.624;2022-10-16T05:20:24;5.38;;;2.15;;
53875;SDS011;39789;53.216;5.624;2022-10-16T05:22:51;3.38;;;1.73;;
53875;SDS011;39789;53.216;5.624;2022-10-16T05:25:17;4.97;;;2.72;;
53875;SDS011;39789;53.216;5.624;2022-10-16T05:27:43;4.95;;;1.70;;
53875;SDS011;39789;53.216;5.624;2022-10-16T05:30:12;8.32;;;2.30;;
53875;SDS011;39789;53.216;5.624;2022-10-16T05:32:37;6.85;;;2.30;;
53875;SDS011;39789;53.216;5.624;2022-10-16T05:35:03;6.35;;;2.20;;
53875;SDS011;39789;53.216;5.624;2022-10-16T05:37:29;4.28;;;2.42;;
53875;SDS011;39789;53.216;5.624;2022-10-16T05:39:55;4.85;;;2.60;;
53875;SDS011;39789;53.216;5.624;2022-10-16T05:42:20;5.13;;;2.60;;
53875;SDS011;39789;53.216;5.624;2022-10-16T05:44:46;7.80;;;3.03;;
53875;SDS011;39789;53.216;5.624;2022-10-16T05:47:14;7.55;;;2.72;;
53875;SDS011;39789;53.216;5.624;2022-10-16T05:49:41;5.40;;;2.70;;
53875;SDS011;39789;53.216;5.624;2022-10-16T05:52:06;7.65;;;2.95;;
53875;SDS011;39789;53.216;5.624;2022-10-16T05:54:32;4.88;;;3.15;;
53875;SDS011;39789;53.216;5.624;2022-10-16T05:56:58;7.88;;;2.78;;
53875;SDS011;39789;53.216;5.624;2022-10-16T05:59:23;5.65;;;2.60;;
53875;SDS011;39789;53.216;5.624;2022-10-16T06:01:49;3.92;;;2.35;;
53875;SDS011;39789;53.216;5.624;2022-10-16T06:04:15;10.75;;;2.92;;
53875;SDS011;39789;53.216;5.624;2022-10-16T06:06:42;6.35;;;2.45;;
53875;SDS011;39789;53.216;5.624;2022-10-16T06:09:08;7.68;;;3.00;;
53875;SDS011;39789;53.216;5.624;2022-10-16T06:11:37;6.05;;;2.45;;
53875;SDS011;39789;53.216;5.624;2022-10-16T06:14:03;4.88;;;2.40;;
53875;SDS011;39789;53.216;5.624;2022-10-16T06:16:32;6.63;;;2.78;;
53875;SDS011;39789;53.216;5.624;2022-10-16T06:18:59;5.68;;;2.47;;
53875;SDS011;39789;53.216;5.624;2022-10-16T06:21:26;8.52;;;2.47;;
53875;SDS011;39789;53.216;5.624;2022-10-16T06:23:53;5.90;;;2.30;;
53875;SDS011;39789;53.216;5.624;2022-10-16T06:26:20;8.27;;;2.90;;
53875;SDS011;39789;53.216;5.624;2022-10-16T06:28:48;11.45;;;3.00;;
53875;SDS011;39789;53.216;5.624;2022-10-16T06:31:15;9.00;;;2.60;;
53875;SDS011;39789;53.216;5.624;2022-10-16T06:33:41;8.70;;;2.75;;
53875;SDS011;39789;53.216;5.624;2022-10-16T06:38:35;10.70;;;3.00;;
53875;SDS011;39789;53.216;5.624;2022-10-16T06:41:01;7.82;;;2.63;;
53875;SDS011;39789;53.216;5.624;2022-10-16T06:43:28;7.78;;;2.95;;
53875;SDS011;39789;53.216;5.624;2022-10-16T06:45:57;8.40;;;2.83;;
53875;SDS011;39789;53.216;5.624;2022-10-16T06:48:23;10.10;;;2.45;;
53875;SDS011;39789;53.216;5.624;2022-10-16T06:51:06;5.45;;;2.08;;
53875;SDS011;39789;53.216;5.624;2022-10-16T06:53:37;8.50;;;2.20;;
53875;SDS011;39789;53.216;5.624;2022-10-16T06:58:36;7.85;;;2.88;;
53875;SDS011;39789;53.216;5.624;2022-10-16T07:01:05;7.65;;;2.15;;
53875;SDS011;39789;53.216;5.624;2022-10-16T07:03:31;5.13;;;1.98;;
53875;SDS011;39789;53.216;5.624;2022-10-16T07:05:56;7.50;;;2.85;;
53875;SDS011;39789;53.216;5.624;2022-10-16T07:08:25;7.30;;;2.00;;
53875;SDS011;39789;53.216;5.624;2022-10-16T07:10:57;6.75;;;2.05;;
53875;SDS011;39789;53.216;5.624;2022-10-16T07:13:28;7.28;;;2.13;;
53875;SDS011;39789;53.216;5.624;2022-10-16T07:15:53;5.82;;;2.20;;
53875;SDS011;39789;53.216;5.624;2022-10-16T07:18:19;4.53;;;2.10;;
53875;SDS011;39789;53.216;5.624;2022-10-16T07:20:45;5.90;;;3.55;;
53875;SDS011;39789;53.216;5.624;2022-10-16T07:23:10;6.82;;;2.72;;
53875;SDS011;39789;53.216;5.624;2022-10-16T07:25:36;4.97;;;2.30;;
53875;SDS011;39789;53.216;5.624;2022-10-16T07:28:01;7.72;;;2.10;;
53875;SDS011;39789;53.216;5.624;2022-10-16T07:30:27;5.60;;;2.35;;
53875;SDS011;39789;53.216;5.624;2022-10-16T07:32:52;7.78;;;3.25;;
53875;SDS011;39789;53.216;5.624;2022-10-16T07:35:18;7.13;;;2.30;;
53875;SDS011;39789;53.216;5.624;2022-10-16T07:37:44;6.95;;;2.38;;
53875;SDS011;39789;53.216;5.624;2022-10-16T07:40:13;6.07;;;2.40;;
53875;SDS011;39789;53.216;5.624;2022-10-16T07:42:39;5.82;;;2.72;;
53875;SDS011;39789;53.216;5.624;2022-10-16T07:45:05;10.80;;;3.13;;
53875;SDS011;39789;53.216;5.624;2022-10-16T07:47:31;3.92;;;2.40;;
53875;SDS011;39789;53.216;5.624;2022-10-16T07:49:56;7.32;;;2.58;;
53875;SDS011;39789;53.216;5.624;2022-10-16T07:52:22;4.25;;;2.42;;
53875;SDS011;39789;53.216;5.624;2022-10-16T07:54:47;5.55;;;2.90;;
53875;SDS011;39789;53.216;5.624;2022-10-16T07:57:14;7.38;;;2.95;;
53875;SDS011;39789;53.216;5.624;2022-10-16T07:59:44;7.60;;;2.90;;
53875;SDS011;39789;53.216;5.624;2022-10-16T08:02:11;7.32;;;2.85;;
53875;SDS011;39789;53.216;5.624;2022-10-16T08:04:37;7.20;;;2.70;;
53875;SDS011;39789;53.216;5.624;2022-10-16T08:07:02;6.57;;;2.60;;
53875;SDS011;39789;53.216;5.624;2022-10-16T08:09:28;7.13;;;2.67;;
53875;SDS011;39789;53.216;5.624;2022-10-16T08:11:54;11.85;;;2.80;;
53875;SDS011;39789;53.216;5.624;2022-10-16T08:14:19;4.85;;;1.92;;
53875;SDS011;39789;53.216;5.624;2022-10-16T08:16:45;6.78;;;2.50;;
53875;SDS011;39789;53.216;5.624;2022-10-16T08:19:10;8.40;;;2.33;;
53875;SDS011;39789;53.216;5.624;2022-10-16T08:21:36;7.43;;;2.58;;
53875;SDS011;39789;53.216;5.624;2022-10-16T08:27:43;10.45;;;2.65;;
53875;SDS011;39789;53.216;5.624;2022-10-16T08:30:09;8.40;;;2.67;;
53875;SDS011;39789;53.216;5.624;2022-10-16T08:32:35;8.18;;;2.95;;
53875;SDS011;39789;53.216;5.624;2022-10-16T08:35:01;6.95;;;3.10;;
53875;SDS011;39789;53.216;5.624;2022-10-16T08:37:30;7.88;;;2.80;;
53875;SDS011;39789;53.216;5.624;2022-10-16T08:39:57;5.65;;;2.78;;
53875;SDS011;39789;53.216;5.624;2022-10-16T08:50:43;7.13;;;3.08;;
53875;SDS011;39789;53.216;5.624;2022-10-16T08:53:14;9.07;;;2.90;;
53875;SDS011;39789;53.216;5.624;2022-10-16T08:55:45;11.73;;;2.40;;
53875;SDS011;39789;53.216;5.624;2022-10-16T08:58:19;11.40;;;3.05;;
53875;SDS011;39789;53.216;5.624;2022-10-16T09:00:56;20.85;;;3.08;;
53875;SDS011;39789;53.216;5.624;2022-10-16T09:06:05;11.38;;;2.97;;
53875;SDS011;39789;53.216;5.624;2022-10-16T09:11:52;10.90;;;3.40;;
53875;SDS011;39789;53.216;5.624;2022-10-16T09:17:10;9.75;;;2.90;;
53875;SDS011;39789;53.216;5.624;2022-10-16T09:19:57;9.95;;;3.17;;
53875;SDS011;39789;53.216;5.624;2022-10-16T09:22:25;10.50;;;2.80;;
53875;SDS011;39789;53.216;5.624;2022-10-16T09:24:54;7.70;;;2.70;;
53875;SDS011;39789;53.216;5.624;2022-10-16T09:27:24;17.67;;;3.67;;
53875;SDS011;39789;53.216;5.624;2022-10-16T09:29:51;9.82;;;3.08;;
53875;SDS011;39789;53.216;5.624;2022-10-16T09:32:18;10.23;;;2.90;;
53875;SDS011;39789;53.216;5.624;2022-10-16T09:34:47;12.80;;;2.83;;
53875;SDS011;39789;53.216;5.624;2022-10-16T09:37:20;11.10;;;2.97;;
53875;SDS011;39789;53.216;5.624;2022-10-16T09:39:49;15.60;;;3.22;;
53875;SDS011;39789;53.216;5.624;2022-10-16T09:42:20;12.65;;;3.70;;
53875;SDS011;39789;53.216;5.624;2022-10-16T09:44:47;18.67;;;3.38;;
53875;SDS011;39789;53.216;5.624;2022-10-16T09:47:16;18.10;;;4.07;;
53875;SDS011;39789;53.216;5.624;2022-10-16T09:50:01;14.35;;;3.63;;
53875;SDS011;39789;53.216;5.624;2022-10-16T09:52:31;10.43;;;3.38;;
53875;SDS011;39789;53.216;5.624;2022-10-16T09:54:58;11.85;;;3.00;;
53875;SDS011;39789;53.216;5.624;2022-10-16T09:57:28;17.77;;;2.92;;
53875;SDS011;39789;53.216;5.624;2022-10-16T09:59:56;11.30;;;2.67;;
53875;SDS011;39789;53.216;5.624;2022-10-16T10:02:29;12.07;;;2.90;;
53875;SDS011;39789;53.216;5.624;2022-10-16T10:04:58;10.00;;;2.55;;
53875;SDS011;39789;53.216;5.624;2022-10-16T10:07:25;11.90;;;3.05;;
53875;SDS011;39789;53.216;5.624;2022-10-16T10:09:52;5.68;;;2.55;;
53875;SDS011;39789;53.216;5.624;2022-10-16T10:12:23;12.18;;;2.78;;
53875;SDS011;39789;53.216;5.624;2022-10-16T10:15:12;11.80;;;3.47;;
53875;SDS011;39789;53.216;5.624;2022-10-16T10:17:47;9.02;;;3.00;;
53875;SDS011;39789;53.216;5.624;2022-10-16T10:20:21;13.13;;;3.72;;
53875;SDS011;39789;53.216;5.624;2022-10-16T10:22:56;13.38;;;4.18;;
53875;SDS011;39789;53.216;5.624;2022-10-16T10:25:25;14.55;;;2.72;;
53875;SDS011;39789;53.216;5.624;2022-10-16T10:30:54;13.70;;;3.78;;
53875;SDS011;39789;53.216;5.624;2022-10-16T10:46:53;14.27;;;3.28;;
53875;SDS011;39789;53.216;5.624;2022-10-16T10:55:37;12.57;;;3.13;;
53875;SDS011;39789;53.216;5.624;2022-10-16T11:03:31;12.02;;;2.72;;
53875;SDS011;39789;53.216;5.624;2022-10-16T11:06:29;10.13;;;3.13;;
53875;SDS011;39789;53.216;5.624;2022-10-16T11:09:15;14.38;;;2.60;;
53875;SDS011;39789;53.216;5.624;2022-10-16T11:11:45;11.18;;;3.28;;
53875;SDS011;39789;53.216;5.624;2022-10-16T11:14:18;15.93;;;3.47;;
53875;SDS011;39789;53.216;5.624;2022-10-16T11:16:54;10.75;;;2.10;;
53875;SDS011;39789;53.216;5.624;2022-10-16T11:19:33;13.90;;;3.05;;
53875;SDS011;39789;53.216;5.624;2022-10-16T11:22:24;12.73;;;2.50;;
53875;SDS011;39789;53.216;5.624;2022-10-16T11:24:53;10.75;;;2.60;;
53875;SDS011;39789;53.216;5.624;2022-10-16T11:27:42;11.20;;;2.77;;
53875;SDS011;39789;53.216;5.624;2022-10-16T11:30:28;11.63;;;2.78;;
53875;SDS011;39789;53.216;5.624;2022-10-16T11:33:00;9.70;;;2.85;;
53875;SDS011;39789;53.216;5.624;2022-10-16T11:41:13;12.20;;;2.78;;
53875;SDS011;39789;53.216;5.624;2022-10-16T11:44:10;12.77;;;2.63;;
53875;SDS011;39789;53.216;5.624;2022-10-16T11:46:40;9.07;;;2.55;;
53875;SDS011;39789;53.216;5.624;2022-10-16T11:49:16;19.92;;;3.17;;
53875;SDS011;39789;53.216;5.624;2022-10-16T11:51:59;9.02;;;2.15;;
53875;SDS011;39789;53.216;5.624;2022-10-16T11:57:50;6.18;;;2.50;;
53875;SDS011;39789;53.216;5.624;2022-10-16T12:00:24;6.63;;;2.45;;
53875;SDS011;39789;53.216;5.624;2022-10-16T12:03:22;11.45;;;2.88;;
53875;SDS011;39789;53.216;5.624;2022-10-16T12:08:38;14.43;;;2.95;;
53875;SDS011;39789;53.216;5.624;2022-10-16T12:11:09;9.73;;;2.35;;
53875;SDS011;39789;53.216;5.624;2022-10-16T12:13:51;10.45;;;2.53;;
53875;SDS011;39789;53.216;5.624;2022-10-16T12:18:45;7.65;;;1.98;;
53875;SDS011;39789;53.216;5.624;2022-10-16T12:21:12;11.88;;;3.50;;
53875;SDS011;39789;53.216;5.624;2022-10-16T12:23:54;8.50;;;2.10;;
53875;SDS011;39789;53.216;5.624;2022-10-16T12:26:30;7.13;;;2.30;;
53875;SDS011;39789;53.216;5.624;2022-10-16T12:29:19;10.30;;;1.85;;
53875;SDS011;39789;53.216;5.624;2022-10-16T12:31:47;10.65;;;1.95;;
53875;SDS011;39789;53.216;5.624;2022-10-16T12:34:28;8.32;;;2.60;;
53875;SDS011;39789;53.216;5.624;2022-10-16T12:37:07;9.63;;;2.55;;
53875;SDS011;39789;53.216;5.624;2022-10-16T12:39:39;10.32;;;2.20;;
53875;SDS011;39789;53.216;5.624;2022-10-16T12:42:18;12.10;;;3.67;;
53875;SDS011;39789;53.216;5.624;2022-10-16T12:44:51;11.77;;;2.25;;
53875;SDS011;39789;53.216;5.624;2022-10-16T12:49:58;12.02;;;2.45;;
53875;SDS011;39789;53.216;5.624;2022-10-16T12:52:29;12.15;;;2.75;;
53875;SDS011;39789;53.216;5.624;2022-10-16T12:55:04;12.27;;;2.35;;
53875;SDS011;39789;53.216;5.624;2022-10-16T12:57:43;11.07;;;2.72;;
53875;SDS011;39789;53.216;5.624;2022-10-16T13:00:37;14.90;;;2.45;;
53875;SDS011;39789;53.216;5.624;2022-10-16T13:03:22;15.73;;;3.05;;
53875;SDS011;39789;53.216;5.624;2022-10-16T13:14:51;15.63;;;2.67;;
53875;SDS011;39789;53.216;5.624;2022-10-16T13:17:35;11.13;;;3.05;;
53875;SDS011;39789;53.216;5.624;2022-10-16T13:20:27;9.60;;;3.08;;
53875;SDS011;39789;53.216;5.624;2022-10-16T13:23:22;7.70;;;2.25;;
53875;SDS011;39789;53.216;5.624;2022-10-16T13:26:09;12.38;;;2.30;;
53875;SDS011;39789;53.216;5.624;2022-10-16T13:28:58;10.82;;;2.50;;
53875;SDS011;39789;53.216;5.624;2022-10-16T13:31:26;13.20;;;2.30;;
53875;SDS011;39789;53.216;5.624;2022-10-16T13:33:53;10.65;;;2.45;;
53875;SDS011;39789;53.216;5.624;2022-10-16T13:36:25;8.75;;;2.40;;
53875;SDS011;39789;53.216;5.624;2022-10-16T13:41:46;11.73;;;2.75;;
53875;SDS011;39789;53.216;5.624;2022-10-16T13:44:23;13.85;;;2.22;;
53875;SDS011;39789;53.216;5.624;2022-10-16T13:46:57;18.13;;;2.85;;
53875;SDS011;39789;53.216;5.624;2022-10-16T13:49:24;14.00;;;2.67;;
53875;SDS011;39789;53.216;5.624;2022-10-16T13:51:53;16.42;;;2.65;;
53875;SDS011;39789;53.216;5.624;2022-10-16T13:54:20;7.40;;;2.30;;
53875;SDS011;39789;53.216;5.624;2022-10-16T13:56:46;16.70;;;2.25;;
53875;SDS011;39789;53.216;5.624;2022-10-16T13:59:32;7.20;;;2.60;;
53875;SDS011;39789;53.216;5.624;2022-10-16T14:02:00;11.20;;;2.00;;
53875;SDS011;39789;53.216;5.624;2022-10-16T14:04:50;12.50;;;2.70;;
53875;SDS011;39789;53.216;5.624;2022-10-16T14:07:26;9.23;;;2.10;;
53875;SDS011;39789;53.216;5.624;2022-10-16T14:09:53;12.95;;;3.15;;
53875;SDS011;39789;53.216;5.624;2022-10-16T14:12:21;11.43;;;2.15;;
53875;SDS011;39789;53.216;5.624;2022-10-16T14:14:48;13.30;;;2.72;;
53875;SDS011;39789;53.216;5.624;2022-10-16T14:17:20;9.57;;;2.72;;
53875;SDS011;39789;53.216;5.624;2022-10-16T14:19:53;10.95;;;2.78;;
53875;SDS011;39789;53.216;5.624;2022-10-16T14:22:26;13.35;;;3.08;;
53875;SDS011;39789;53.216;5.624;2022-10-16T14:27:44;8.93;;;2.00;;
53875;SDS011;39789;53.216;5.624;2022-10-16T14:30:21;6.40;;;1.98;;
53875;SDS011;39789;53.216;5.624;2022-10-16T14:33:01;10.35;;;2.65;;
53875;SDS011;39789;53.216;5.624;2022-10-16T14:35:38;17.83;;;2.75;;
53875;SDS011;39789;53.216;5.624;2022-10-16T14:38:05;14.52;;;3.92;;
53875;SDS011;39789;53.216;5.624;2022-10-16T14:40:32;11.25;;;2.38;;
53875;SDS011;39789;53.216;5.624;2022-10-16T14:43:04;9.75;;;2.28;;
53875;SDS011;39789;53.216;5.624;2022-10-16T14:45:49;5.93;;;2.00;;
53875;SDS011;39789;53.216;5.624;2022-10-16T14:51:00;8.60;;;2.50;;
53875;SDS011;39789;53.216;5.624;2022-10-16T14:53:26;10.00;;;1.88;;
53875;SDS011;39789;53.216;5.624;2022-10-16T14:55:51;9.60;;;2.30;;
53875;SDS011;39789;53.216;5.624;2022-10-16T14:58:18;8.40;;;2.30;;
53875;SDS011;39789;53.216;5.624;2022-10-16T15:03:15;11.00;;;2.28;;
53875;SDS011;39789;53.216;5.624;2022-10-16T15:05:41;21.42;;;2.00;;
53875;SDS011;39789;53.216;5.624;2022-10-16T15:08:07;11.88;;;2.03;;
53875;SDS011;39789;53.216;5.624;2022-10-16T15:10:38;10.93;;;2.10;;
53875;SDS011;39789;53.216;5.624;2022-10-16T15:13:05;15.70;;;2.85;;
53875;SDS011;39789;53.216;5.624;2022-10-16T15:18:01;22.63;;;3.00;;
53875;SDS011;39789;53.216;5.624;2022-10-16T15:20:29;11.23;;;2.25;;
53875;SDS011;39789;53.216;5.624;2022-10-16T15:22:58;9.40;;;2.50;;
53875;SDS011;39789;53.216;5.624;2022-10-16T15:27:54;8.40;;;2.72;;
53875;SDS011;39789;53.216;5.624;2022-10-16T15:30:19;11.43;;;2.13;;
53875;SDS011;39789;53.216;5.624;2022-10-16T15:32:48;9.75;;;2.50;;
53875;SDS011;39789;53.216;5.624;2022-10-16T15:35:20;15.55;;;3.35;;
53875;SDS011;39789;53.216;5.624;2022-10-16T15:38:06;14.57;;;3.15;;
53875;SDS011;39789;53.216;5.624;2022-10-16T15:40:56;7.65;;;2.22;;
53875;SDS011;39789;53.216;5.624;2022-10-16T15:43:28;8.75;;;2.83;;
53875;SDS011;39789;53.216;5.624;2022-10-16T15:46:02;9.82;;;2.03;;
53875;SDS011;39789;53.216;5.624;2022-10-16T15:48:33;10.88;;;2.55;;
53875;SDS011;39789;53.216;5.624;2022-10-16T15:50:59;8.70;;;2.08;;
53875;SDS011;39789;53.216;5.624;2022-10-16T15:53:34;12.88;;;2.70;;
53875;SDS011;39789;53.216;5.624;2022-10-16T15:56:05;21.77;;;3.17;;
53875;SDS011;39789;53.216;5.624;2022-10-16T15:58:37;13.10;;;2.10;;
53875;SDS011;39789;53.216;5.624;2022-10-16T16:01:06;6.93;;;2.33;;
53875;SDS011;39789;53.216;5.624;2022-10-16T16:03:34;10.93;;;2.53;;
53875;SDS011;39789;53.216;5.624;2022-10-16T16:06:04;15.80;;;2.83;;
53875;SDS011;39789;53.216;5.624;2022-10-16T16:08:32;9.10;;;3.08;;
53875;SDS011;39789;53.216;5.624;2022-10-16T16:11:17;13.50;;;2.67;;
53875;SDS011;39789;53.216;5.624;2022-10-16T16:13:44;12.07;;;2.60;;
53875;SDS011;39789;53.216;5.624;2022-10-16T16:16:11;14.30;;;2.75;;
53875;SDS011;39789;53.216;5.624;2022-10-16T16:18:38;14.57;;;3.10;;
53875;SDS011;39789;53.216;5.624;2022-10-16T16:21:05;12.00;;;2.88;;
53875;SDS011;39789;53.216;5.624;2022-10-16T16:23:30;17.17;;;3.03;;
53875;SDS011;39789;53.216;5.624;2022-10-16T16:26:29;11.38;;;2.63;;
53875;SDS011;39789;53.216;5.624;2022-10-16T16:28:52;21.15;;;3.38;;
53875;SDS011;39789;53.216;5.624;2022-10-16T16:31:19;11.75;;;3.13;;
53875;SDS011;39789;53.216;5.624;2022-10-16T16:33:46;10.00;;;2.75;;
53875;SDS011;39789;53.216;5.624;2022-10-16T16:36:11;11.73;;;3.03;;
53875;SDS011;39789;53.216;5.624;2022-10-16T16:38:37;30.25;;;4.03;;
53875;SDS011;39789;53.216;5.624;2022-10-16T16:41:16;13.23;;;3.08;;
53875;SDS011;39789;53.216;5.624;2022-10-16T16:43:47;14.60;;;3.25;;
53875;SDS011;39789;53.216;5.624;2022-10-16T16:46:13;16.25;;;3.90;;
53875;SDS011;39789;53.216;5.624;2022-10-16T16:48:39;16.80;;;2.72;;
53875;SDS011;39789;53.216;5.624;2022-10-16T16:51:05;10.13;;;2.53;;